sensor_id;sensor_type;location;lat;lon;timestamp;pressure;altitude;pressure_sealevel;temperature;humidity
64933;BME280;51446;53.850;10.662;2023-12-07T00:01:46;101633.63;;;-0.49;100.00
64933;BME280;51446;53.850;10.662;2023-12-07T00:04:11;101629.69;;;-0.44;100.00
64933;BME280;51446;53.850;10.662;2023-12-07T00:06:36;101637.75;;;-0.51;100.00
64933;BME280;51446;53.850;10.662;2023-12-07T00:09:02;101640.00;;;-0.44;100.00
64933;BME280;51446;53.850;10.662;2023-12-07T00:11:29;101638.22;;;-0.33;100.00
64933;BME280;51446;53.850;10.662;2023-12-07T00:13:55;101638.88;;;-0.47;100.00
64933;BME280;51446;53.850;10.662;2023-12-07T00:16:23;101639.56;;;-0.50;100.00
64933;BME280;51446;53.850;10.662;2023-12-07T00:18:49;101637.97;;;-0.48;100.00
64933;BME280;51446;53.850;10.662;2023-12-07T00:21:14;101635.50;;;-0.46;100.00
64933;BME280;51446;53.850;10.662;2023-12-07T00:23:39;101646.19;;;-0.42;100.00
64933;BME280;51446;53.850;10.662;2023-12-07T00:26:04;101642.13;;;-0.38;100.00
64933;BME280;51446;53.850;10.662;2023-12-07T00:28:30;101637.09;;;-0.37;100.00
64933;BME280;51446;53.850;10.662;2023-12-07T00:30:56;101647.16;;;-0.40;100.00
64933;BME280;51446;53.850;10.662;2023-12-07T00:33:22;101641.22;;;-0.50;100.00
64933;BME280;51446;53.850;10.662;2023-12-07T00:35:52;101647.16;;;-0.40;100.00
64933;BME280;51446;53.850;10.662;2023-12-07T00:38:37;101657.25;;;-0.43;100.00
64933;BME280;51446;53.850;10.662;2023-12-07T00:41:03;101654.78;;;-0.41;100.00
64933;BME280;51446;53.850;10.662;2023-12-07T00:43:28;101663.84;;;-0.46;100.00
64933;BME280;51446;53.850;10.662;2023-12-07T00:45:55;101652.88;;;-0.32;100.00
64933;BME280;51446;53.850;10.662;2023-12-07T00:48:22;101664.09;;;-0.20;100.00
64933;BME280;51446;53.850;10.662;2023-12-07T00:50:48;101665.00;;;-0.19;100.00
64933;BME280;51446;53.850;10.662;2023-12-07T00:53:13;101666.69;;;-0.31;100.00
64933;BME280;51446;53.850;10.662;2023-12-07T00:55:38;101671.16;;;-0.29;100.00
64933;BME280;51446;53.850;10.662;2023-12-07T00:58:05;101670.97;;;-0.20;100.00
64933;BME280;51446;53.850;10.662;2023-12-07T01:00:30;101671.94;;;-0.30;100.00
64933;BME280;51446;53.850;10.662;2023-12-07T01:02:58;101674.25;;;-0.45;100.00
64933;BME280;51446;53.850;10.662;2023-12-07T01:05:25;101689.03;;;-0.54;100.00
64933;BME280;51446;53.850;10.662;2023-12-07T01:07:51;101693.91;;;-0.35;100.00
64933;BME280;51446;53.850;10.662;2023-12-07T01:10:16;101694.81;;;-0.34;100.00
64933;BME280;51446;53.850;10.662;2023-12-07T01:12:41;101698.50;;;-0.31;100.00
64933;BME280;51446;53.850;10.662;2023-12-07T01:15:07;101701.94;;;-0.42;100.00
64933;BME280;51446;53.850;10.662;2023-12-07T01:17:32;101700.13;;;-0.55;100.00
64933;BME280;51446;53.850;10.662;2023-12-07T01:19:57;101701.66;;;-0.11;100.00
64933;BME280;51446;53.850;10.662;2023-12-07T01:22:23;101713.09;;;-0.08;100.00
64933;BME280;51446;53.850;10.662;2023-12-07T01:24:48;101706.69;;;-0.25;100.00
64933;BME280;51446;53.850;10.662;2023-12-07T01:27:13;101702.66;;;-0.21;100.00
64933;BME280;51446;53.850;10.662;2023-12-07T01:29:39;101704.31;;;-0.22;100.00
64933;BME280;51446;53.850;10.662;2023-12-07T01:32:04;101703.47;;;0.13;100.00
64933;BME280;51446;53.850;10.662;2023-12-07T01:34:31;101699.97;;;-0.11;100.00
64933;BME280;51446;53.850;10.662;2023-12-07T01:36:57;101703.56;;;-0.09;100.00
64933;BME280;51446;53.850;10.662;2023-12-07T01:39:22;101710.50;;;-0.20;100.00
64933;BME280;51446;53.850;10.662;2023-12-07T01:41:48;101704.31;;;-0.33;100.00
64933;BME280;51446;53.850;10.662;2023-12-07T01:44:13;101704.47;;;-0.20;100.00
64933;BME280;51446;53.850;10.662;2023-12-07T01:46:38;101698.75;;;-0.04;100.00
64933;BME280;51446;53.850;10.662;2023-12-07T01:49:04;101715.78;;;-0.06;100.00
64933;BME280;51446;53.850;10.662;2023-12-07T01:51:29;101713.31;;;-0.05;100.00
64933;BME280;51446;53.850;10.662;2023-12-07T01:53:55;101710.72;;;-0.16;100.00
64933;BME280;51446;53.850;10.662;2023-12-07T01:56:21;101721.72;;;-0.07;100.00
64933;BME280;51446;53.850;10.662;2023-12-07T01:58:46;101718.25;;;-0.20;100.00
64933;BME280;51446;53.850;10.662;2023-12-07T02:01:11;101720.47;;;-0.24;100.00
64933;BME280;51446;53.850;10.662;2023-12-07T02:03:41;101718.03;;;-0.11;100.00
64933;BME280;51446;53.850;10.662;2023-12-07T02:06:07;101722.72;;;-0.17;100.00
64933;BME280;51446;53.850;10.662;2023-12-07T02:08:34;101720.50;;;-0.01;100.00
64933;BME280;51446;53.850;10.662;2023-12-07T02:11:00;101721.16;;;-0.03;100.00
64933;BME280;51446;53.850;10.662;2023-12-07T02:13:25;101730.03;;;0.01;100.00
64933;BME280;51446;53.850;10.662;2023-12-07T02:15:53;101728.16;;;0.22;100.00
64933;BME280;51446;53.850;10.662;2023-12-07T02:18:36;101728.44;;;0.03;100.00
64933;BME280;51446;53.850;10.662;2023-12-07T02:21:14;101722.19;;;-0.01;100.00
64933;BME280;51446;53.850;10.662;2023-12-07T02:23:41;101719.03;;;-0.09;100.00
64933;BME280;51446;53.850;10.662;2023-12-07T02:26:08;101719.81;;;-0.10;100.00
64933;BME280;51446;53.850;10.662;2023-12-07T02:28:35;101722.19;;;-0.13;100.00
64933;BME280;51446;53.850;10.662;2023-12-07T02:31:00;101723.28;;;-0.09;100.00
64933;BME280;51446;53.850;10.662;2023-12-07T02:33:26;101721.06;;;-0.05;100.00
64933;BME280;51446;53.850;10.662;2023-12-07T02:35:51;101728.56;;;0.04;100.00
64933;BME280;51446;53.850;10.662;2023-12-07T02:38:19;101726.78;;;0.03;100.00
64933;BME280;51446;53.850;10.662;2023-12-07T02:40:48;101729.47;;;0.16;100.00
64933;BME280;51446;53.850;10.662;2023-12-07T02:43:14;101732.94;;;0.05;100.00
64933;BME280;51446;53.850;10.662;2023-12-07T02:45:40;101739.47;;;0.24;100.00
64933;BME280;51446;53.850;10.662;2023-12-07T02:48:10;101739.44;;;0.36;100.00
64933;BME280;51446;53.850;10.662;2023-12-07T02:50:35;101737.97;;;0.27;100.00
64933;BME280;51446;53.850;10.662;2023-12-07T02:53:00;101734.31;;;0.12;100.00
64933;BME280;51446;53.850;10.662;2023-12-07T02:55:26;101744.63;;;0.12;100.00
64933;BME280;51446;53.850;10.662;2023-12-07T02:57:51;101746.41;;;0.25;100.00
64933;BME280;51446;53.850;10.662;2023-12-07T03:00:16;101740.91;;;0.44;100.00
64933;BME280;51446;53.850;10.662;2023-12-07T03:02:42;101738.09;;;0.41;100.00
64933;BME280;51446;53.850;10.662;2023-12-07T03:05:07;101747.19;;;0.12;100.00
64933;BME280;51446;53.850;10.662;2023-12-07T03:07:35;101752.34;;;0.36;100.00
64933;BME280;51446;53.850;10.662;2023-12-07T03:10:01;101747.19;;;0.24;100.00
64933;BME280;51446;53.850;10.662;2023-12-07T03:12:26;101750.00;;;0.15;100.00
64933;BME280;51446;53.850;10.662;2023-12-07T03:14:52;101735.97;;;0.11;100.00
64933;BME280;51446;53.850;10.662;2023-12-07T03:17:18;101747.06;;;0.58;100.00
64933;BME280;51446;53.850;10.662;2023-12-07T03:19:43;101739.00;;;0.41;100.00
64933;BME280;51446;53.850;10.662;2023-12-07T03:22:11;101742.94;;;0.36;100.00
64933;BME280;51446;53.850;10.662;2023-12-07T03:24:38;101752.25;;;0.22;100.00
64933;BME280;51446;53.850;10.662;2023-12-07T03:27:04;101740.00;;;0.20;100.00
64933;BME280;51446;53.850;10.662;2023-12-07T03:29:31;101749.56;;;0.09;100.00
64933;BME280;51446;53.850;10.662;2023-12-07T03:31:56;101753.03;;;0.21;100.00
64933;BME280;51446;53.850;10.662;2023-12-07T03:34:22;101749.31;;;0.06;100.00
64933;BME280;51446;53.850;10.662;2023-12-07T03:36:47;101750.69;;;0.36;100.00
64933;BME280;51446;53.850;10.662;2023-12-07T03:39:15;101747.09;;;0.22;100.00
64933;BME280;51446;53.850;10.662;2023-12-07T03:41:47;101757.50;;;0.47;100.00
64933;BME280;51446;53.850;10.662;2023-12-07T03:44:13;101756.25;;;0.19;100.00
64933;BME280;51446;53.850;10.662;2023-12-07T03:46:38;101761.53;;;0.08;100.00
64933;BME280;51446;53.850;10.662;2023-12-07T03:49:04;101755.28;;;0.16;100.00
64933;BME280;51446;53.850;10.662;2023-12-07T03:51:31;101757.19;;;0.31;100.00
64933;BME280;51446;53.850;10.662;2023-12-07T03:53:56;101760.88;;;0.11;100.00
64933;BME280;51446;53.850;10.662;2023-12-07T03:56:28;101764.34;;;0.11;100.00
64933;BME280;51446;53.850;10.662;2023-12-07T03:58:54;101770.19;;;0.09;100.00
64933;BME280;51446;53.850;10.662;2023-12-07T04:01:27;101767.22;;;-0.08;100.00
64933;BME280;51446;53.850;10.662;2023-12-07T04:03:54;101774.84;;;-0.09;100.00
64933;BME280;51446;53.850;10.662;2023-12-07T04:06:23;101769.03;;;0.05;100.00
64933;BME280;51446;53.850;10.662;2023-12-07T04:08:49;101774.31;;;0.19;100.00
64933;BME280;51446;53.850;10.662;2023-12-07T04:11:16;101770.19;;;0.32;100.00
64933;BME280;51446;53.850;10.662;2023-12-07T04:13:42;101776.56;;;0.02;100.00
64933;BME280;51446;53.850;10.662;2023-12-07T04:16:09;101787.75;;;0.03;100.00
64933;BME280;51446;53.850;10.662;2023-12-07T04:18:34;101783.03;;;-0.03;100.00
64933;BME280;51446;53.850;10.662;2023-12-07T04:21:03;101792.59;;;-0.02;100.00
64933;BME280;51446;53.850;10.662;2023-12-07T04:23:28;101792.91;;;0.03;100.00
64933;BME280;51446;53.850;10.662;2023-12-07T04:25:57;101789.13;;;0.09;100.00
64933;BME280;51446;53.850;10.662;2023-12-07T04:28:22;101789.78;;;0.19;100.00
64933;BME280;51446;53.850;10.662;2023-12-07T04:30:49;101793.94;;;0.05;100.00
64933;BME280;51446;53.850;10.662;2023-12-07T04:33:14;101791.81;;;-0.01;100.00
64933;BME280;51446;53.850;10.662;2023-12-07T04:35:39;101792.25;;;0.05;100.00
64933;BME280;51446;53.850;10.662;2023-12-07T04:38:05;101791.03;;;0.12;100.00
64933;BME280;51446;53.850;10.662;2023-12-07T04:40:30;101793.16;;;0.06;100.00
64933;BME280;51446;53.850;10.662;2023-12-07T04:42:55;101789.59;;;0.39;100.00
64933;BME280;51446;53.850;10.662;2023-12-07T04:45:20;101794.66;;;0.38;100.00
64933;BME280;51446;53.850;10.662;2023-12-07T04:47:52;101782.28;;;0.10;100.00
64933;BME280;51446;53.850;10.662;2023-12-07T04:50:18;101782.06;;;0.19;100.00
64933;BME280;51446;53.850;10.662;2023-12-07T04:52:44;101786.34;;;0.18;100.00
64933;BME280;51446;53.850;10.662;2023-12-07T04:55:09;101789.47;;;0.14;100.00
64933;BME280;51446;53.850;10.662;2023-12-07T04:57:35;101795.88;;;0.07;100.00
64933;BME280;51446;53.850;10.662;2023-12-07T05:00:01;101804.06;;;0.13;100.00
64933;BME280;51446;53.850;10.662;2023-12-07T05:02:31;101798.50;;;-0.03;100.00
64933;BME280;51446;53.850;10.662;2023-12-07T05:04:56;101797.53;;;0.07;100.00
64933;BME280;51446;53.850;10.662;2023-12-07T05:07:21;101796.75;;;0.08;100.00
64933;BME280;51446;53.850;10.662;2023-12-07T05:09:47;101796.31;;;0.13;100.00
64933;BME280;51446;53.850;10.662;2023-12-07T05:12:12;101800.31;;;-0.02;100.00
64933;BME280;51446;53.850;10.662;2023-12-07T05:14:37;101791.16;;;0.02;100.00
64933;BME280;51446;53.850;10.662;2023-12-07T05:17:03;101785.88;;;0.00;100.00
64933;BME280;51446;53.850;10.662;2023-12-07T05:19:29;101795.28;;;0.11;100.00
64933;BME280;51446;53.850;10.662;2023-12-07T05:21:54;101792.38;;;0.07;100.00
64933;BME280;51446;53.850;10.662;2023-12-07T05:24:19;101796.53;;;0.05;100.00
64933;BME280;51446;53.850;10.662;2023-12-07T05:26:45;101800.09;;;0.07;100.00
64933;BME280;51446;53.850;10.662;2023-12-07T05:29:14;101802.47;;;0.15;100.00
64933;BME280;51446;53.850;10.662;2023-12-07T05:31:39;101813.59;;;0.14;100.00
64933;BME280;51446;53.850;10.662;2023-12-07T05:34:05;101815.38;;;0.15;100.00
64933;BME280;51446;53.850;10.662;2023-12-07T05:36:31;101785.72;;;-0.02;100.00
64933;BME280;51446;53.850;10.662;2023-12-07T05:38:56;101802.94;;;0.22;100.00
64933;BME280;51446;53.850;10.662;2023-12-07T05:41:21;101814.59;;;0.28;100.00
64933;BME280;51446;53.850;10.662;2023-12-07T05:43:51;101808.44;;;0.26;100.00
64933;BME280;51446;53.850;10.662;2023-12-07T05:46:16;101815.31;;;0.38;100.00
64933;BME280;51446;53.850;10.662;2023-12-07T05:48:41;101816.75;;;0.34;100.00
64933;BME280;51446;53.850;10.662;2023-12-07T05:51:12;101816.63;;;0.32;100.00
64933;BME280;51446;53.850;10.662;2023-12-07T05:53:40;101816.97;;;0.37;100.00
64933;BME280;51446;53.850;10.662;2023-12-07T05:56:05;101813.72;;;0.28;100.00
64933;BME280;51446;53.850;10.662;2023-12-07T05:58:32;101805.97;;;0.40;100.00
64933;BME280;51446;53.850;10.662;2023-12-07T06:00:58;101831.13;;;0.42;100.00
64933;BME280;51446;53.850;10.662;2023-12-07T06:03:24;101832.66;;;0.40;100.00
64933;BME280;51446;53.850;10.662;2023-12-07T06:05:51;101836.16;;;0.29;100.00
64933;BME280;51446;53.850;10.662;2023-12-07T06:08:16;101834.78;;;0.34;100.00
64933;BME280;51446;53.850;10.662;2023-12-07T06:10:44;101836.72;;;0.37;100.00
64933;BME280;51446;53.850;10.662;2023-12-07T06:13:10;101849.06;;;0.41;100.00
64933;BME280;51446;53.850;10.662;2023-12-07T06:15:35;101832.09;;;0.44;100.00
64933;BME280;51446;53.850;10.662;2023-12-07T06:18:01;101829.75;;;0.24;100.00
64933;BME280;51446;53.850;10.662;2023-12-07T06:20:26;101837.03;;;0.29;100.00
64933;BME280;51446;53.850;10.662;2023-12-07T06:22:51;101841.53;;;0.32;100.00
64933;BME280;51446;53.850;10.662;2023-12-07T06:25:17;101839.50;;;0.16;100.00
64933;BME280;51446;53.850;10.662;2023-12-07T06:27:45;101840.59;;;0.08;100.00
64933;BME280;51446;53.850;10.662;2023-12-07T06:30:11;101842.19;;;0.17;100.00
64933;BME280;51446;53.850;10.662;2023-12-07T06:32:36;101844.66;;;0.16;100.00
64933;BME280;51446;53.850;10.662;2023-12-07T06:35:11;101837.34;;;0.10;100.00
64933;BME280;51446;53.850;10.662;2023-12-07T06:37:37;101829.06;;;0.14;100.00
64933;BME280;51446;53.850;10.662;2023-12-07T06:40:03;101842.19;;;0.17;100.00
64933;BME280;51446;53.850;10.662;2023-12-07T06:42:29;101838.47;;;0.14;100.00
64933;BME280;51446;53.850;10.662;2023-12-07T06:44:55;101848.72;;;0.36;100.00
64933;BME280;51446;53.850;10.662;2023-12-07T06:47:20;101847.13;;;0.14;100.00
64933;BME280;51446;53.850;10.662;2023-12-07T06:49:45;101846.09;;;0.12;100.00
64933;BME280;51446;53.850;10.662;2023-12-07T06:52:12;101843.19;;;0.08;100.00
64933;BME280;51446;53.850;10.662;2023-12-07T06:54:37;101840.16;;;0.02;100.00
64933;BME280;51446;53.850;10.662;2023-12-07T06:57:06;101853.25;;;0.05;100.00
64933;BME280;51446;53.850;10.662;2023-12-07T06:59:33;101850.94;;;0.20;100.00
64933;BME280;51446;53.850;10.662;2023-12-07T07:01:58;101851.13;;;0.11;100.00
64933;BME280;51446;53.850;10.662;2023-12-07T07:04:23;101843.28;;;-0.03;100.00
64933;BME280;51446;53.850;10.662;2023-12-07T07:06:49;101859.00;;;0.24;100.00
64933;BME280;51446;53.850;10.662;2023-12-07T07:09:14;101845.00;;;0.32;100.00
64933;BME280;51446;53.850;10.662;2023-12-07T07:11:40;101859.50;;;0.30;100.00
64933;BME280;51446;53.850;10.662;2023-12-07T07:14:09;101859.31;;;0.17;100.00
64933;BME280;51446;53.850;10.662;2023-12-07T07:16:34;101868.22;;;0.21;100.00
64933;BME280;51446;53.850;10.662;2023-12-07T07:19:00;101861.13;;;0.18;100.00
64933;BME280;51446;53.850;10.662;2023-12-07T07:21:26;101860.47;;;0.21;100.00
64933;BME280;51446;53.850;10.662;2023-12-07T07:23:51;101866.91;;;0.38;100.00
64933;BME280;51446;53.850;10.662;2023-12-07T07:26:17;101872.28;;;0.52;100.00
64933;BME280;51446;53.850;10.662;2023-12-07T07:28:45;101848.03;;;0.27;100.00
64933;BME280;51446;53.850;10.662;2023-12-07T07:31:11;101869.00;;;0.31;100.00
64933;BME280;51446;53.850;10.662;2023-12-07T07:33:36;101869.56;;;0.27;100.00
64933;BME280;51446;53.850;10.662;2023-12-07T07:36:02;101854.28;;;0.19;100.00
64933;BME280;51446;53.850;10.662;2023-12-07T07:38:27;101843.84;;;0.17;100.00
64933;BME280;51446;53.850;10.662;2023-12-07T07:40:52;101857.44;;;0.14;100.00
64933;BME280;51446;53.850;10.662;2023-12-07T07:43:18;101865.94;;;0.13;100.00
64933;BME280;51446;53.850;10.662;2023-12-07T07:45:43;101869.00;;;0.20;100.00
64933;BME280;51446;53.850;10.662;2023-12-07T07:48:11;101870.03;;;0.22;100.00
64933;BME280;51446;53.850;10.662;2023-12-07T07:50:37;101870.78;;;0.21;100.00
64933;BME280;51446;53.850;10.662;2023-12-07T07:53:03;101871.91;;;0.24;100.00
64933;BME280;51446;53.850;10.662;2023-12-07T07:55:29;101866.53;;;0.21;100.00
64933;BME280;51446;53.850;10.662;2023-12-07T07:57:54;101875.94;;;0.21;100.00
64933;BME280;51446;53.850;10.662;2023-12-07T08:00:19;101873.59;;;0.24;100.00
64933;BME280;51446;53.850;10.662;2023-12-07T08:02:46;101874.91;;;0.19;100.00
64933;BME280;51446;53.850;10.662;2023-12-07T08:05:12;101863.72;;;0.18;100.00
64933;BME280;51446;53.850;10.662;2023-12-07T08:13:41;101877.78;;;0.33;100.00
64933;BME280;51446;53.850;10.662;2023-12-07T08:16:07;101888.31;;;0.37;100.00
64933;BME280;51446;53.850;10.662;2023-12-07T08:18:34;101890.56;;;0.32;100.00
64933;BME280;51446;53.850;10.662;2023-12-07T08:20:59;101892.44;;;0.34;100.00
64933;BME280;51446;53.850;10.662;2023-12-07T08:23:24;101897.38;;;0.31;100.00
64933;BME280;51446;53.850;10.662;2023-12-07T08:25:50;101903.47;;;0.32;100.00
64933;BME280;51446;53.850;10.662;2023-12-07T08:28:15;101906.16;;;0.33;100.00
64933;BME280;51446;53.850;10.662;2023-12-07T08:30:40;101915.44;;;0.31;100.00
64933;BME280;51446;53.850;10.662;2023-12-07T08:33:05;101914.78;;;0.34;100.00
64933;BME280;51446;53.850;10.662;2023-12-07T08:35:31;101914.00;;;0.35;100.00
64933;BME280;51446;53.850;10.662;2023-12-07T08:37:56;101911.31;;;0.33;100.00
64933;BME280;51446;53.850;10.662;2023-12-07T08:40:21;101917.47;;;0.36;100.00
64933;BME280;51446;53.850;10.662;2023-12-07T08:42:47;101918.06;;;0.43;100.00
64933;BME280;51446;53.850;10.662;2023-12-07T08:45:13;101924.66;;;0.40;100.00
64933;BME280;51446;53.850;10.662;2023-12-07T08:47:39;101932.88;;;0.46;100.00
64933;BME280;51446;53.850;10.662;2023-12-07T08:50:04;101934.00;;;0.49;100.00
64933;BME280;51446;53.850;10.662;2023-12-07T08:52:30;101936.94;;;0.54;100.00
64933;BME280;51446;53.850;10.662;2023-12-07T08:54:55;101940.50;;;0.56;100.00
64933;BME280;51446;53.850;10.662;2023-12-07T08:57:21;101920.50;;;0.42;100.00
64933;BME280;51446;53.850;10.662;2023-12-07T08:59:46;101935.59;;;0.59;100.00
64933;BME280;51446;53.850;10.662;2023-12-07T09:02:11;101933.25;;;0.62;100.00
64933;BME280;51446;53.850;10.662;2023-12-07T09:04:37;101932.66;;;0.55;100.00
64933;BME280;51446;53.850;10.662;2023-12-07T09:07:03;101942.91;;;0.65;100.00
64933;BME280;51446;53.850;10.662;2023-12-07T09:09:29;101953.69;;;0.59;100.00
64933;BME280;51446;53.850;10.662;2023-12-07T09:11:54;101945.56;;;0.55;100.00
64933;BME280;51446;53.850;10.662;2023-12-07T09:14:19;101941.53;;;0.58;100.00
64933;BME280;51446;53.850;10.662;2023-12-07T09:16:45;101943.03;;;0.66;100.00
64933;BME280;51446;53.850;10.662;2023-12-07T09:19:11;101940.50;;;0.56;100.00
64933;BME280;51446;53.850;10.662;2023-12-07T09:21:37;101941.88;;;0.63;100.00
64933;BME280;51446;53.850;10.662;2023-12-07T09:24:03;101946.81;;;0.72;100.00
64933;BME280;51446;53.850;10.662;2023-12-07T09:26:28;101948.19;;;0.78;100.00
64933;BME280;51446;53.850;10.662;2023-12-07T09:28:53;101946.28;;;0.76;100.00
64933;BME280;51446;53.850;10.662;2023-12-07T09:31:19;101943.81;;;0.77;100.00
64933;BME280;51446;53.850;10.662;2023-12-07T09:33:44;101943.03;;;0.78;100.00
64933;BME280;51446;53.850;10.662;2023-12-07T09:36:10;101941.44;;;0.80;100.00
64933;BME280;51446;53.850;10.662;2023-12-07T09:38:36;101936.41;;;0.82;100.00
64933;BME280;51446;53.850;10.662;2023-12-07T09:41:03;101934.63;;;0.93;100.00
64933;BME280;51446;53.850;10.662;2023-12-07T09:43:28;101933.50;;;1.01;100.00
64933;BME280;51446;53.850;10.662;2023-12-07T09:45:54;101926.63;;;1.25;100.00
64933;BME280;51446;53.850;10.662;2023-12-07T09:48:21;101928.06;;;1.33;100.00
64933;BME280;51446;53.850;10.662;2023-12-07T09:50:46;101926.63;;;1.37;100.00
64933;BME280;51446;53.850;10.662;2023-12-07T09:53:12;101923.56;;;1.31;100.00
64933;BME280;51446;53.850;10.662;2023-12-07T09:55:37;101928.97;;;1.22;100.00
64933;BME280;51446;53.850;10.662;2023-12-07T09:58:04;101928.41;;;1.26;100.00
64933;BME280;51446;53.850;10.662;2023-12-07T10:00:29;101939.53;;;1.13;100.00
64933;BME280;51446;53.850;10.662;2023-12-07T10:02:55;101940.69;;;1.17;100.00
64933;BME280;51446;53.850;10.662;2023-12-07T10:05:20;101935.59;;;1.30;100.00
64933;BME280;51446;53.850;10.662;2023-12-07T10:07:48;101931.09;;;1.28;100.00
64933;BME280;51446;53.850;10.662;2023-12-07T10:10:14;101929.19;;;1.25;100.00
64933;BME280;51446;53.850;10.662;2023-12-07T10:12:48;101913.91;;;1.40;100.00
64933;BME280;51446;53.850;10.662;2023-12-07T10:15:17;101916.38;;;1.38;100.00
64933;BME280;51446;53.850;10.662;2023-12-07T10:17:56;101917.28;;;1.39;100.00
64933;BME280;51446;53.850;10.662;2023-12-07T10:20:23;101916.03;;;1.46;100.00
64933;BME280;51446;53.850;10.662;2023-12-07T10:23:00;101911.19;;;1.50;100.00
64933;BME280;51446;53.850;10.662;2023-12-07T10:25:33;101914.31;;;1.58;100.00
64933;BME280;51446;53.850;10.662;2023-12-07T10:28:00;101917.81;;;1.59;100.00
64933;BME280;51446;53.850;10.662;2023-12-07T10:30:27;101912.38;;;1.67;100.00
64933;BME280;51446;53.850;10.662;2023-12-07T10:32:52;101918.84;;;1.74;100.00
64933;BME280;51446;53.850;10.662;2023-12-07T10:35:18;101926.97;;;1.67;100.00
64933;BME280;51446;53.850;10.662;2023-12-07T10:37:44;101926.38;;;1.83;100.00
64933;BME280;51446;53.850;10.662;2023-12-07T10:40:10;101924.84;;;1.73;100.00
64933;BME280;51446;53.850;10.662;2023-12-07T10:42:36;101920.31;;;1.82;100.00
64933;BME280;51446;53.850;10.662;2023-12-07T10:45:04;101928.09;;;1.70;100.00
64933;BME280;51446;53.850;10.662;2023-12-07T10:47:32;101923.25;;;1.75;100.00
64933;BME280;51446;53.850;10.662;2023-12-07T10:50:00;101924.75;;;1.60;100.00
64933;BME280;51446;53.850;10.662;2023-12-07T10:52:27;101928.00;;;1.69;100.00
64933;BME280;51446;53.850;10.662;2023-12-07T10:55:02;101931.66;;;1.47;100.00
64933;BME280;51446;53.850;10.662;2023-12-07T10:57:30;101932.09;;;1.53;100.00
64933;BME280;51446;53.850;10.662;2023-12-07T10:59:57;101934.97;;;1.58;100.00
64933;BME280;51446;53.850;10.662;2023-12-07T11:02:25;101928.78;;;1.68;100.00
64933;BME280;51446;53.850;10.662;2023-12-07T11:04:53;101929.56;;;1.67;100.00
64933;BME280;51446;53.850;10.662;2023-12-07T11:07:21;101925.09;;;1.64;100.00
64933;BME280;51446;53.850;10.662;2023-12-07T11:09:53;101931.50;;;1.58;100.00
64933;BME280;51446;53.850;10.662;2023-12-07T11:12:40;101933.84;;;1.66;100.00
64933;BME280;51446;53.850;10.662;2023-12-07T11:15:11;101933.50;;;1.73;100.00
64933;BME280;51446;53.850;10.662;2023-12-07T11:17:54;101926.81;;;1.89;100.00
64933;BME280;51446;53.850;10.662;2023-12-07T11:20:32;101924.38;;;2.04;100.00
64933;BME280;51446;53.850;10.662;2023-12-07T11:23:04;101923.44;;;2.15;100.00
64933;BME280;51446;53.850;10.662;2023-12-07T11:25:30;101923.34;;;2.27;100.00
64933;BME280;51446;53.850;10.662;2023-12-07T11:28:00;101920.66;;;2.25;100.00
64933;BME280;51446;53.850;10.662;2023-12-07T11:30:26;101912.31;;;2.68;100.00
64933;BME280;51446;53.850;10.662;2023-12-07T11:32:51;101905.75;;;3.00;100.00
64933;BME280;51446;53.850;10.662;2023-12-07T11:35:17;101905.81;;;3.28;100.00
64933;BME280;51446;53.850;10.662;2023-12-07T11:38:05;101911.81;;;3.27;100.00
64933;BME280;51446;53.850;10.662;2023-12-07T11:40:32;101908.28;;;3.27;100.00
64933;BME280;51446;53.850;10.662;2023-12-07T11:42:59;101907.69;;;3.31;100.00
64933;BME280;51446;53.850;10.662;2023-12-07T11:45:38;101889.28;;;2.86;100.00
64933;BME280;51446;53.850;10.662;2023-12-07T11:48:16;101911.72;;;2.72;100.00
64933;BME280;51446;53.850;10.662;2023-12-07T11:50:59;101911.38;;;2.54;100.00
64933;BME280;51446;53.850;10.662;2023-12-07T11:53:28;101904.63;;;2.18;100.00
64933;BME280;51446;53.850;10.662;2023-12-07T11:55:55;101916.19;;;1.98;100.00
64933;BME280;51446;53.850;10.662;2023-12-07T11:58:21;101919.78;;;2.00;100.00
64933;BME280;51446;53.850;10.662;2023-12-07T12:00:47;101921.84;;;1.92;100.00
64933;BME280;51446;53.850;10.662;2023-12-07T12:03:13;101918.84;;;1.74;100.00
64933;BME280;51446;53.850;10.662;2023-12-07T12:05:39;101925.72;;;1.73;100.00
64933;BME280;51446;53.850;10.662;2023-12-07T12:08:06;101915.03;;;1.81;100.00
64933;BME280;51446;53.850;10.662;2023-12-07T12:10:31;101917.81;;;1.59;100.00
64933;BME280;51446;53.850;10.662;2023-12-07T12:12:56;101919.94;;;1.64;100.00
64933;BME280;51446;53.850;10.662;2023-12-07T12:15:21;101916.56;;;1.53;100.00
64933;BME280;51446;53.850;10.662;2023-12-07T12:17:48;101923.28;;;1.63;100.00
64933;BME280;51446;53.850;10.662;2023-12-07T12:20:14;101921.69;;;1.65;100.00
64933;BME280;51446;53.850;10.662;2023-12-07T12:22:43;101923.28;;;1.63;100.00
64933;BME280;51446;53.850;10.662;2023-12-07T12:25:08;101927.47;;;1.49;100.00
64933;BME280;51446;53.850;10.662;2023-12-07T12:27:34;101927.91;;;1.55;100.00
64933;BME280;51446;53.850;10.662;2023-12-07T12:30:01;101910.06;;;1.47;100.00
64933;BME280;51446;53.850;10.662;2023-12-07T12:32:26;101907.03;;;1.41;100.00
64933;BME280;51446;53.850;10.662;2023-12-07T12:34:52;101909.03;;;1.56;100.00
64933;BME280;51446;53.850;10.662;2023-12-07T12:37:17;101905.56;;;1.56;100.00
64933;BME280;51446;53.850;10.662;2023-12-07T12:39:42;101913.59;;;1.72;100.00
64933;BME280;51446;53.850;10.662;2023-12-07T12:42:08;101908.41;;;1.72;100.00